Terminal Aerodrome Forecast
Issued by NWS Atlanta, GA

Home | Current Version | Previous Version | Text Only | Print | Product List | Glossary On
Versions: 1 2 3 4 5 6 7 8 9 10 11 12 13 14 15 16 17
000
FTUS42 KFFC 281400 AAB
TAFMCN
TAF AMD
KMCN 281400Z 2814/2912 07007KT P6SM SCT008 BKN025
      TEMPO 2814/2815 BKN008
     FM281500 08006KT P6SM SCT010 BKN030
     FM281700 09010KT P6SM BKN040
     FM281900 10006KT P6SM SCT040 BKN250
     FM290100 10004KT P6SM SCT045 BKN250
     FM290800 09003KT P6SM SCT008 BKN020=

USA.gov is the U.S. government's official web portal to all federal, state and local government web resources and services.